Avon, Montana
Current Conditions -  °F | °C
As of 8:53 PM on Friday 31 Oct 2014 (Local Time) from KHLN Reporting Station
Clear Clear  
Wind Chill: 44°   Ceiling: Unl
Heat Index: 47°   Visibility: 10mi
Dew Point: 35°   Wind: 6mph
Humidity: 63%   Direction: 240°WSW
Pressure: 29.76"   Gusts: NA
Location:  46.59°N, 112.61°W
Report Text: KHLN 010253Z 24005KT 10SM CLR 08/02 A2976 RMK AO2 SLP103 T00830017 52001
Loading
Personal Weather Stations






























Interactive Weather Map
Tropical Storm Tracking
New forecast layout! Learn more

10-Day Weather Forecast

Advertisements
Track Severe Weather on mobile